Time;durP1;ratioP1;P1;durP2;ratioP2;P2;SDS_P1;SDS_P2;PMS_P1;PMS_P2;Temp;Humidity;BMP_temperature;BMP_pressure;BME280_temperature;BME280_humidity;BME280_pressure;Samples;Min_cycle;Max_cycle;Signal;HPM_P1;HPM_P2
2022/06/24 00:00:35;;;;;;;20.17;11.95;;;588.90;2432.00;;;;;;4894541;29;20036;-75
2022/06/24 00:03:01;;;;;;;15.77;11.52;;;589.00;2432.00;;;;;;4894769;29;20056;-75
2022/06/24 00:05:31;;;;;;;15.70;12.23;;;589.00;2432.00;;;;;;4894446;29;20067;-75
2022/06/24 00:07:57;;;;;;;15.73;11.35;;;588.80;2432.00;;;;;;4878685;29;20032;-75
2022/06/24 00:10:31;;;;;;;17.85;11.82;;;;;;;;;;4894467;29;20594;-75
2022/06/24 00:12:57;;;;;;;14.00;11.43;;;;;;;;;;4915497;29;20039;-75
2022/06/24 00:15:25;;;;;;;14.27;12.02;;;564.00;2432.00;;;;;;4953665;28;20074;-75
2022/06/24 00:17:51;;;;;;;15.77;13.25;;;563.80;2432.00;;;;;;4953342;29;20015;-75
2022/06/24 00:20:18;;;;;;;15.18;10.68;;;563.60;2432.00;;;;;;4936397;29;20027;-75
2022/06/24 00:22:47;;;;;;;17.13;11.48;;;563.50;2432.00;;;;;;4953444;28;20097;-74
2022/06/24 00:25:14;;;;;;;19.05;12.30;;;563.50;2432.00;;;;;;4953477;28;20489;-75
2022/06/24 00:27:41;;;;;;;15.93;11.23;;;563.40;2432.00;;;;;;4953249;29;20122;-75
2022/06/24 00:30:12;;;;;;;19.65;11.73;;;563.30;2432.00;;;;;;4953592;29;20489;-74
2022/06/24 00:32:38;;;;;;;19.90;12.30;;;563.40;2432.00;;;;;;4953035;28;20024;-74
2022/06/24 00:35:10;;;;;;;12.27;10.70;;;563.40;2432.00;;;;;;4953445;29;20022;-75
2022/06/24 00:37:37;;;;;;;13.50;11.55;;;563.60;2432.00;;;;;;4953615;29;20031;-75
2022/06/24 00:40:24;;;;;;;16.25;11.43;;;563.60;2432.00;;;;;;4950950;28;20102;-75
2022/06/24 00:42:50;;;;;;;13.32;10.82;;;563.60;2432.00;;;;;;4936251;29;20084;-75
2022/06/24 00:45:31;;;;;;;15.57;12.60;;;563.70;2432.00;;;;;;4953271;28;20035;-75
2022/06/24 00:47:57;;;;;;;14.10;12.32;;;563.70;2432.00;;;;;;4952322;28;20103;-74
2022/06/24 00:50:26;;;;;;;13.85;12.43;;;563.70;2432.00;;;;;;4936210;29;20023;-75
2022/06/24 00:52:57;;;;;;;15.13;11.95;;;563.60;2432.00;;;;;;4953156;28;20015;-75
2022/06/24 00:55:32;;;;;;;19.42;12.52;;;563.40;2432.00;;;;;;4953105;28;20062;-74
2022/06/24 00:57:59;;;;;;;16.88;11.70;;;538.50;2406.40;;;;;;4936029;29;20126;-75
2022/06/24 01:00:27;;;;;;;20.60;12.75;;;538.30;2406.40;;;;;;4950655;29;20023;-74
2022/06/24 01:03:01;;;;;;;16.83;13.93;;;538.20;2406.40;;;;;;4935925;29;20474;-75
2022/06/24 01:05:28;;;;;;;14.90;12.70;;;538.10;2406.40;;;;;;4950807;28;20046;-75
2022/06/24 01:07:55;;;;;;;14.15;11.85;;;538.20;2406.40;;;;;;4936055;29;20015;-75
2022/06/24 01:10:21;;;;;;;17.08;11.43;;;538.20;2406.40;;;;;;4952767;28;20023;-75
2022/06/24 01:12:47;;;;;;;12.82;11.45;;;538.30;2406.40;;;;;;4953031;29;20358;-75
2022/06/24 01:15:12;;;;;;;15.40;12.77;;;538.40;2406.40;;;;;;4953198;28;20482;-75
2022/06/24 01:17:39;;;;;;;15.90;12.30;;;538.40;2406.40;;;;;;4953393;28;20034;-75
2022/06/24 01:20:09;;;;;;;15.45;12.02;;;538.30;2406.40;;;;;;4954265;29;20019;-75
2022/06/24 01:22:35;;;;;;;13.02;11.63;;;538.30;2406.40;;;;;;4956506;29;20448;-75
2022/06/24 01:25:01;;;;;;;15.07;12.15;;;;;;;;;;4956219;29;20046;-75
2022/06/24 01:27:27;;;;;;;17.35;11.80;;;538.00;2406.40;;;;;;4956295;28;20035;-75
2022/06/24 01:29:53;;;;;;;20.10;12.05;;;537.80;2406.40;;;;;;4956520;29;20036;-74
2022/06/24 01:32:19;;;;;;;16.73;11.50;;;537.80;2406.40;;;;;;4939015;29;20454;-75
2022/06/24 01:34:45;;;;;;;16.40;11.85;;;537.80;2406.40;;;;;;4956374;28;20090;-75
2022/06/24 01:37:11;;;;;;;14.27;10.70;;;537.70;2406.40;;;;;;4938973;29;20020;-75
2022/06/24 01:39:37;;;;;;;19.63;12.13;;;537.70;2406.40;;;;;;4956176;29;20507;-75
2022/06/24 01:42:03;;;;;;;13.88;10.75;;;537.60;2406.40;;;;;;4939161;29;20027;-75
2022/06/24 01:44:29;;;;;;;16.40;12.45;;;537.60;2406.40;;;;;;4956029;28;20053;-75
2022/06/24 01:46:55;;;;;;;19.60;12.93;;;537.70;2406.40;;;;;;4956194;29;20027;-75
2022/06/24 01:49:21;;;;;;;16.52;12.07;;;512.90;2380.80;;;;;;4955906;28;20023;-75
2022/06/24 01:51:51;;;;;;;14.10;11.13;;;512.90;2380.80;;;;;;4956069;29;20049;-74
2022/06/24 01:54:17;;;;;;;18.67;11.05;;;537.60;2406.40;;;;;;4955620;28;20012;-75
2022/06/24 01:56:43;;;;;;;15.60;12.15;;;512.90;2380.80;;;;;;4938566;28;20051;-75
2022/06/24 01:59:09;;;;;;;18.55;12.63;;;512.70;2380.80;;;;;;4955662;29;20027;-75
2022/06/24 02:01:34;;;;;;;22.63;13.05;;;512.70;2380.80;;;;;;4956051;29;20093;-75
2022/06/24 02:04:00;;;;;;;14.27;10.90;;;512.60;2380.80;;;;;;4955560;28;20027;-74
2022/06/24 02:06:26;;;;;;;13.88;11.15;;;512.80;2380.80;;;;;;4955451;29;20024;-74
2022/06/24 02:08:52;;;;;;;15.10;10.30;;;512.90;2380.80;;;;;;4956287;29;20031;-75
2022/06/24 02:14:09;;;;;;;12.90;11.20;;;512.90;2380.80;;;;;;4955400;29;20496;-75
2022/06/24 02:16:36;;;;;;;13.98;11.40;;;537.80;2406.40;;;;;;4955467;28;20454;-75
2022/06/24 02:19:03;;;;;;;12.23;10.40;;;537.80;2406.40;;;;;;4955375;29;20035;-75
2022/06/24 02:21:29;;;;;;;11.95;10.23;;;537.90;2406.40;;;;;;4955619;29;20098;-75
2022/06/24 02:23:55;;;;;;;13.00;10.98;;;537.90;2406.40;;;;;;4955198;28;20094;-75
2022/06/24 02:26:21;;;;;;;13.48;11.82;;;538.00;2406.40;;;;;;4955407;28;20019;-75
2022/06/24 02:28:47;;;;;;;13.32;10.60;;;538.00;2406.40;;;;;;4954699;28;20110;-75
2022/06/24 02:31:13;;;;;;;12.23;10.93;;;538.10;2406.40;;;;;;4937627;29;20115;-75
2022/06/24 02:33:39;;;;;;;13.70;11.70;;;538.00;2406.40;;;;;;4955052;29;20462;-75
2022/06/24 02:36:06;;;;;;;14.15;12.13;;;538.00;2406.40;;;;;;4955323;29;20027;-75
2022/06/24 02:38:33;;;;;;;17.05;12.68;;;537.90;2406.40;;;;;;4937809;29;20019;-75
2022/06/24 02:41:00;;;;;;;17.83;13.77;;;538.00;2406.40;;;;;;4954862;29;20580;-75
2022/06/24 02:43:32;;;;;;;16.38;13.30;;;537.90;2406.40;;;;;;4955079;29;20070;-75
2022/06/24 02:46:04;;;;;;;17.58;13.77;;;538.00;2406.40;;;;;;4954853;28;20023;-75
2022/06/24 02:48:33;;;;;;;18.08;13.63;;;538.00;2406.40;;;;;;4954797;29;20032;-75
2022/06/24 02:51:00;;;;;;;16.85;14.07;;;538.10;2406.40;;;;;;4937332;29;20023;-75
2022/06/24 02:53:28;;;;;;;15.38;13.63;;;538.10;2406.40;;;;;;4954771;29;20015;-75
2022/06/24 02:55:56;;;;;;;21.83;14.43;;;538.20;2406.40;;;;;;4954419;28;20047;-75
2022/06/24 02:58:23;;;;;;;17.30;14.48;;;538.20;2406.40;;;;;;4937332;29;20398;-75
2022/06/24 03:00:48;;;;;;;14.88;13.38;;;538.20;2406.40;;;;;;4937294;29;20493;-75
2022/06/24 03:03:16;;;;;;;20.50;14.27;;;538.20;2406.40;;;;;;4954490;28;20043;-75
2022/06/24 03:05:42;;;;;;;15.90;14.23;;;538.20;2406.40;;;;;;4954705;29;20027;-75
2022/06/24 03:08:09;;;;;;;17.50;15.70;;;538.10;2406.40;;;;;;4954445;28;20016;-75
2022/06/24 03:10:35;;;;;;;21.50;15.20;;;537.90;2406.40;;;;;;4954507;28;20490;-75
2022/06/24 03:13:04;;;;;;;17.73;15.10;;;537.90;2406.40;;;;;;4954607;29;20034;-75
2022/06/24 03:15:30;;;;;;;18.65;15.80;;;537.90;2406.40;;;;;;4954498;29;20465;-75
2022/06/24 03:17:56;;;;;;;17.02;15.23;;;537.90;2406.40;;;;;;4954334;29;20027;-75
2022/06/24 03:20:22;;;;;;;19.08;14.95;;;537.90;2406.40;;;;;;4954112;29;20031;-76
2022/06/24 03:22:48;;;;;;;21.58;16.10;;;537.90;2406.40;;;;;;4954168;28;20049;-75
2022/06/24 03:25:15;;;;;;;23.67;13.85;;;538.00;2406.40;;;;;;4936997;29;20047;-75
2022/06/24 03:27:40;;;;;;;17.92;15.52;;;538.00;2406.40;;;;;;4937246;29;20054;-75
2022/06/24 03:30:08;;;;;;;15.88;14.20;;;538.00;2406.40;;;;;;4954378;29;20058;-75
2022/06/24 03:32:35;;;;;;;15.65;13.90;;;538.10;2406.40;;;;;;4953915;29;20023;-75
2022/06/24 03:35:01;;;;;;;20.75;14.30;;;538.10;2406.40;;;;;;4953840;29;20477;-75
2022/06/24 03:37:28;;;;;;;16.85;14.40;;;538.20;2406.40;;;;;;4954125;28;20023;-75
2022/06/24 03:39:54;;;;;;;19.60;13.05;;;538.20;2406.40;;;;;;4953618;28;20054;-75
2022/06/24 03:42:20;;;;;;;19.13;14.20;;;538.20;2406.40;;;;;;4953904;28;20023;-75
2022/06/24 03:44:46;;;;;;;16.50;13.25;;;538.30;2406.40;;;;;;4953715;28;20035;-75
2022/06/24 03:47:12;;;;;;;18.55;14.32;;;538.30;2406.40;;;;;;4936182;29;20015;-75
2022/06/24 03:49:38;;;;;;;14.75;13.15;;;538.20;2406.40;;;;;;4954028;29;20031;-75
2022/06/24 03:52:07;;;;;;;17.63;14.60;;;538.20;2406.40;;;;;;4953558;29;20015;-75
2022/06/24 03:54:33;;;;;;;19.40;14.38;;;538.10;2406.40;;;;;;4953815;28;20098;-75
2022/06/24 03:56:59;;;;;;;18.77;13.95;;;538.20;2406.40;;;;;;4953412;28;20051;-75
2022/06/24 03:59:25;;;;;;;16.30;13.50;;;538.20;2406.40;;;;;;4953888;28;20038;-75
2022/06/24 04:01:51;;;;;;;17.27;14.48;;;538.30;2406.40;;;;;;4953676;28;20027;-76
2022/06/24 04:04:16;;;;;;;19.75;14.18;;;538.40;2406.40;;;;;;4936401;29;20110;-76
2022/06/24 04:06:42;;;;;;;18.02;12.63;;;538.40;2406.40;;;;;;4936310;29;20394;-75
2022/06/24 04:09:08;;;;;;;17.20;13.30;;;538.40;2406.40;;;;;;4953987;29;20431;-76
2022/06/24 04:11:34;;;;;;;18.35;14.88;;;538.20;2406.40;;;;;;4950993;29;20490;-76
2022/06/24 04:14:00;;;;;;;18.45;14.13;;;538.50;2406.40;;;;;;4936271;29;20027;-75
2022/06/24 04:16:26;;;;;;;16.70;13.18;;;538.50;2406.40;;;;;;4936604;29;20110;-77
2022/06/24 04:18:52;;;;;;;15.18;13.45;;;538.50;2406.40;;;;;;4935892;29;20031;-76
2022/06/24 04:21:19;;;;;;;20.65;14.02;;;538.50;2406.40;;;;;;4953575;29;20026;-76
2022/06/24 04:23:46;;;;;;;18.15;14.38;;;563.20;2432.00;;;;;;4953190;28;20027;-76
2022/06/24 04:26:12;;;;;;;17.55;12.63;;;563.30;2432.00;;;;;;4953547;29;20023;-77
2022/06/24 04:28:38;;;;;;;20.77;13.63;;;563.30;2432.00;;;;;;4953500;29;20433;-76
2022/06/24 04:31:04;;;;;;;15.88;12.98;;;563.40;2432.00;;;;;;4953680;28;20031;-76
2022/06/24 04:33:30;;;;;;;15.70;12.45;;;563.40;2432.00;;;;;;4936122;29;20031;-76
2022/06/24 04:35:56;;;;;;;16.20;11.88;;;563.30;2432.00;;;;;;4953147;29;20023;-76
2022/06/24 04:38:22;;;;;;;16.15;12.90;;;563.50;2432.00;;;;;;4936238;28;20470;-77
2022/06/24 04:40:48;;;;;;;16.02;11.27;;;563.40;2432.00;;;;;;4952977;28;20055;-76
2022/06/24 04:43:13;;;;;;;16.65;11.25;;;563.30;2432.00;;;;;;4936227;29;20027;-76
2022/06/24 04:45:40;;;;;;;14.35;10.35;;;563.40;2432.00;;;;;;4953170;29;20070;-75
2022/06/24 04:48:06;;;;;;;14.77;9.93;;;563.50;2432.00;;;;;;4953414;29;20154;-75
2022/06/24 04:50:32;;;;;;;13.93;10.05;;;563.60;2432.00;;;;;;4953042;29;20034;-77
2022/06/24 04:52:58;;;;;;;20.90;11.05;;;563.70;2432.00;;;;;;4937263;29;20035;-77
2022/06/24 04:55:24;;;;;;;12.35;10.32;;;563.90;2432.00;;;;;;4956733;28;20047;-77
2022/06/24 04:57:50;;;;;;;14.85;9.90;;;563.90;2432.00;;;;;;4954642;29;20040;-77
2022/06/24 05:00:16;;;;;;;12.02;10.65;;;564.00;2432.00;;;;;;4939522;29;20032;-77
2022/06/24 05:02:42;;;;;;;23.42;20.65;;;564.10;2432.00;;;;;;4957040;29;20034;-77
2022/06/24 05:05:12;;;;;;;38.40;33.13;;;564.10;2432.00;;;;;;4939589;29;20035;-76
2022/06/24 05:07:40;;;;;;;43.42;36.50;;;564.00;2432.00;;;;;;4956808;28;20058;-76
2022/06/24 05:10:06;;;;;;;28.30;25.17;;;564.00;2432.00;;;;;;4957223;28;20023;-76
2022/06/24 05:12:32;;;;;;;21.13;15.40;;;564.10;2432.00;;;;;;4939492;29;20074;-76
2022/06/24 05:14:58;;;;;;;20.00;13.55;;;564.10;2432.00;;;;;;4939387;29;20039;-76
2022/06/24 05:17:24;;;;;;;15.93;11.55;;;564.10;2432.00;;;;;;4956871;29;20027;-76
2022/06/24 05:19:53;;;;;;;17.80;11.93;;;588.80;2432.00;;;;;;4956821;28;20035;-77
2022/06/24 05:22:19;;;;;;;15.55;11.38;;;588.80;2432.00;;;;;;4939201;29;20039;-77
2022/06/24 05:24:45;;;;;;;16.15;11.63;;;588.90;2432.00;;;;;;4956180;28;20493;-77
2022/06/24 05:27:11;;;;;;;16.70;11.05;;;589.10;2432.00;;;;;;4956986;28;20086;-77
2022/06/24 05:29:37;;;;;;;19.70;12.63;;;589.10;2432.00;;;;;;4938810;29;20528;-76
2022/06/24 05:32:03;;;;;;;16.52;10.95;;;589.20;2432.00;;;;;;4956451;28;20019;-75
2022/06/24 05:34:29;;;;;;;15.35;11.80;;;589.60;2432.00;;;;;;4956556;28;20030;-73
2022/06/24 05:36:55;;;;;;;16.88;12.55;;;589.20;2432.00;;;;;;4956676;28;20031;-78
2022/06/24 05:39:21;;;;;;;19.88;11.88;;;589.40;2432.00;;;;;;4956519;28;20019;-76
2022/06/24 05:41:46;;;;;;;16.25;11.60;;;589.50;2432.00;;;;;;4956629;29;20027;-76
2022/06/24 05:44:12;;;;;;;18.95;13.07;;;589.50;2432.00;;;;;;4956336;28;20027;-76
2022/06/24 05:46:39;;;;;;;17.80;13.25;;;589.60;2432.00;;;;;;4956488;29;20082;-76
2022/06/24 05:49:04;;;;;;;17.58;13.98;;;589.70;2432.00;;;;;;4956109;28;20035;-75
2022/06/24 05:51:30;;;;;;;23.02;15.45;;;589.70;2432.00;;;;;;4956366;28;20027;-74
2022/06/24 05:56:40;;;;;;;17.70;14.98;;;614.40;2432.00;;;;;;4956061;28;20069;-76
2022/06/24 05:59:06;;;;;;;19.20;15.40;;;614.50;2432.00;;;;;;4956275;29;20110;-76
2022/06/24 06:01:32;;;;;;;23.08;16.95;;;614.50;2432.00;;;;;;4955981;29;20102;-75
2022/06/24 06:03:58;;;;;;;21.45;16.48;;;614.60;2432.00;;;;;;4956035;28;20130;-77
2022/06/24 06:06:24;;;;;;;23.75;15.82;;;614.70;2432.00;;;;;;4938709;29;20482;-78
2022/06/24 06:08:50;;;;;;;21.20;16.95;;;614.80;2432.00;;;;;;4938537;28;20118;-78
2022/06/24 06:11:17;;;;;;;22.05;17.83;;;614.80;2432.00;;;;;;4938487;29;20043;-75
2022/06/24 06:13:45;;;;;;;19.15;15.70;;;614.80;2432.00;;;;;;4938502;29;20035;-75
2022/06/24 06:16:11;;;;;;;22.27;17.15;;;615.00;2432.00;;;;;;4955750;28;20099;-75
2022/06/24 06:18:37;;;;;;;19.00;17.00;;;615.00;2432.00;;;;;;4955666;28;20035;-76
2022/06/24 06:21:05;;;;;;;24.98;16.55;;;615.10;2432.00;;;;;;4938282;29;20023;-75
2022/06/24 06:23:31;;;;;;;21.15;15.57;;;615.20;2432.00;;;;;;4955520;28;20059;-75
2022/06/24 06:25:58;;;;;;;25.60;16.92;;;615.20;2432.00;;;;;;4955552;29;20027;-76
2022/06/24 06:28:24;;;;;;;20.80;15.60;;;615.30;2432.00;;;;;;4955573;28;20034;-76
2022/06/24 06:30:49;;;;;;;14.45;11.73;;;640.00;2432.00;;;;;;4955515;28;20474;-76
2022/06/24 06:33:15;;;;;;;14.18;12.65;;;640.00;2432.00;;;;;;4955595;29;20090;-76
2022/06/24 06:35:41;;;;;;;17.85;12.55;;;640.20;2432.00;;;;;;4955224;28;20472;-74
2022/06/24 06:38:07;;;;;;;13.70;11.57;;;640.20;2432.00;;;;;;4955493;28;20061;-76
2022/06/24 06:40:37;;;;;;;11.38;8.65;;;640.30;2432.00;;;;;;4955378;28;20059;-75
2022/06/24 06:43:05;;;;;;;12.95;7.55;;;640.40;2432.00;;;;;;4955344;28;20366;-76
2022/06/24 06:45:32;;;;;;;9.85;7.40;;;640.50;2432.00;;;;;;4937507;29;20054;-74
2022/06/24 06:47:58;;;;;;;8.13;6.90;;;640.60;2432.00;;;;;;4955337;28;20027;-75
2022/06/24 06:50:25;;;;;;;11.18;7.22;;;640.70;2304.00;;;;;;4955164;29;20027;-76
2022/06/24 06:52:51;;;;;;;11.82;7.03;;;640.80;2201.60;;;;;;4955163;28;20027;-75
2022/06/24 06:55:16;;;;;;;9.40;7.05;;;665.60;2380.80;;;;;;4954785;28;20042;-75
2022/06/24 06:57:42;;;;;;;14.25;6.90;;;665.60;2278.40;;;;;;4955039;28;20028;-76
2022/06/24 07:00:09;;;;;;;12.68;7.68;;;665.70;2355.20;;;;;;4954974;28;20037;-75
2022/06/24 07:02:36;;;;;;;10.93;7.03;;;665.90;2380.80;;;;;;4955136;28;20020;-74
2022/06/24 07:05:03;;;;;;;9.32;6.97;;;666.00;2278.40;;;;;;4954496;28;20046;-76
2022/06/24 07:07:28;;;;;;;12.48;6.68;;;666.10;2304.00;;;;;;4937517;28;20161;-77
2022/06/24 07:09:54;;;;;;;8.23;4.20;;;666.20;2252.80;;;;;;4954606;29;20069;-74
2022/06/24 07:12:21;;;;;;;10.18;5.50;;;666.20;1971.20;;;;;;4954360;28;20047;-76
2022/06/24 07:14:47;;;;;;;8.48;5.10;;;666.50;2201.60;;;;;;4937466;28;20481;-75
2022/06/24 07:17:12;;;;;;;9.00;5.50;;;691.20;1996.80;;;;;;4954158;28;20113;-75
2022/06/24 07:19:38;;;;;;;4.97;4.18;;;691.20;1894.40;;;;;;4937080;29;20035;-75
2022/06/24 07:22:04;;;;;;;6.95;4.93;;;691.20;1817.60;;;;;;4937038;29;20409;-74
2022/06/24 07:24:30;;;;;;;8.10;5.38;;;691.30;1740.80;;;;;;4953777;28;20504;-75
2022/06/24 07:26:56;;;;;;;10.45;6.38;;;691.40;1868.80;;;;;;4937265;29;20043;-75
2022/06/24 07:29:21;;;;;;;6.20;5.28;;;691.50;1868.80;;;;;;4954289;28;20525;-75
2022/06/24 07:31:47;;;;;;;8.02;5.63;;;691.60;1817.60;;;;;;4937395;29;20122;-76
2022/06/24 07:34:17;;;;;;;6.85;5.15;;;691.70;1766.40;;;;;;4953939;28;20140;-76
2022/06/24 07:36:43;;;;;;;7.47;5.13;;;691.70;1843.20;;;;;;4936898;29;20496;-74
2022/06/24 07:39:09;;;;;;;8.35;3.75;;;691.80;1792.00;;;;;;4936624;29;20426;-76
2022/06/24 07:41:35;;;;;;;7.35;3.55;;;692.00;1740.80;;;;;;4954070;29;20027;-76
2022/06/24 07:44:01;;;;;;;9.15;4.03;;;716.80;1664.00;;;;;;4948290;29;20027;-75
2022/06/24 07:46:27;;;;;;;8.35;4.32;;;716.80;1587.20;;;;;;4953814;29;20027;-76
2022/06/24 07:48:53;;;;;;;8.43;3.20;;;716.90;1510.40;;;;;;4936609;29;20030;-76
2022/06/24 07:51:21;;;;;;;7.68;4.38;;;717.00;1510.40;;;;;;4936219;29;20035;-77
2022/06/24 07:53:47;;;;;;;5.07;2.92;;;717.20;1510.40;;;;;;4953894;29;20034;-77
2022/06/24 07:58:58;;;;;;;6.35;3.28;;;717.20;1484.80;;;;;;4953052;28;20508;-77
2022/06/24 08:01:24;;;;;;;5.28;2.40;;;717.40;1459.20;;;;;;4953862;28;20027;-77
2022/06/24 08:03:50;;;;;;;6.05;2.75;;;717.50;1331.20;;;;;;4953403;28;20031;-76
2022/06/24 08:06:16;;;;;;;7.78;3.00;;;717.60;1356.80;;;;;;4953539;28;20041;-77
2022/06/24 08:08:41;;;;;;;3.70;2.70;;;717.70;1331.20;;;;;;4936631;29;20035;-76
2022/06/24 08:11:07;;;;;;;10.48;3.53;;;717.70;1305.60;;;;;;4920434;28;20465;-76
2022/06/24 08:13:33;;;;;;;5.65;3.45;;;717.70;1356.80;;;;;;4936191;29;20031;-76
2022/06/24 08:16:00;;;;;;;9.70;3.25;;;717.70;1356.80;;;;;;4936586;29;20039;-74
2022/06/24 08:18:26;;;;;;;7.40;2.97;;;742.40;1408.00;;;;;;4953829;29;20023;-78
2022/06/24 08:20:52;;;;;;;6.97;3.00;;;742.50;1331.20;;;;;;4953856;29;20086;-77
2022/06/24 08:23:18;;;;;;;4.57;2.72;;;742.50;1382.40;;;;;;4953627;29;20087;-76
2022/06/24 08:25:44;;;;;;;3.67;2.50;;;742.50;1305.60;;;;;;4953621;28;20122;-77
2022/06/24 08:28:10;;;;;;;6.35;2.53;;;742.60;1280.00;;;;;;4954961;28;20107;-76
2022/06/24 08:30:36;;;;;;;5.85;3.35;;;742.60;1331.20;;;;;;4957163;29;20086;-76
2022/06/24 08:33:02;;;;;;;4.55;3.05;;;742.60;1356.80;;;;;;4957501;29;20019;-77
2022/06/24 08:35:28;;;;;;;3.95;2.33;;;742.70;1331.20;;;;;;4957247;29;20015;-76
2022/06/24 08:37:56;;;;;;;4.68;3.10;;;742.70;1305.60;;;;;;4957140;28;20026;-77
2022/06/24 08:40:24;;;;;;;5.80;2.55;;;742.70;1254.40;;;;;;4957198;28;20024;-77
2022/06/24 08:42:58;;;;;;;7.32;2.67;;;742.80;1280.00;;;;;;4940199;29;20027;-77
2022/06/24 08:45:25;;;;;;;5.35;2.55;;;742.80;1280.00;;;;;;4946406;28;20035;-77
2022/06/24 08:47:51;;;;;;;4.13;2.58;;;742.90;1254.40;;;;;;4939923;29;20058;-75
2022/06/24 08:50:18;;;;;;;5.55;2.97;;;742.90;1305.60;;;;;;4939752;29;20027;-75
2022/06/24 08:52:49;;;;;;;5.25;2.38;;;742.90;1280.00;;;;;;4957039;28;20078;-76
2022/06/24 08:55:19;;;;;;;4.47;2.78;;;742.90;1331.20;;;;;;4940009;29;20043;-77
2022/06/24 08:57:45;;;;;;;5.47;2.90;;;742.90;1280.00;;;;;;4957193;28;20023;-77
2022/06/24 09:00:12;;;;;;;5.35;3.30;;;743.00;1331.20;;;;;;4957448;28;20027;-78
2022/06/24 09:02:38;;;;;;;4.10;2.80;;;743.10;1280.00;;;;;;4940187;29;20031;-75
2022/06/24 09:05:12;;;;;;;4.18;2.47;;;743.10;1280.00;;;;;;4939944;28;20669;-76
2022/06/24 09:07:38;;;;;;;6.63;2.58;;;743.10;1228.80;;;;;;4956889;28;20031;-76
2022/06/24 09:10:06;;;;;;;5.68;3.05;;;743.30;1228.80;;;;;;4956960;28;20027;-75
2022/06/24 09:12:59;;;;;;;5.57;2.75;;;768.00;1254.40;;;;;;4956948;28;20103;-76
2022/06/24 09:15:25;;;;;;;5.60;3.40;;;768.10;1203.20;;;;;;4954098;28;20116;-77
2022/06/24 09:17:51;;;;;;;5.60;3.03;;;768.10;1177.60;;;;;;4956593;28;20122;-77
2022/06/24 09:20:24;;;;;;;4.70;3.53;;;743.30;1152.00;;;;;;4957049;28;20035;-76
2022/06/24 09:23:02;;;;;;;5.32;3.05;;;768.20;1203.20;;;;;;4956739;28;20023;-76
2022/06/24 09:25:39;;;;;;;4.18;2.88;;;768.40;1177.60;;;;;;4938982;29;20051;-76
2022/06/24 09:28:06;;;;;;;7.03;3.15;;;768.50;1126.40;;;;;;4956330;29;20560;-76
2022/06/24 09:30:36;;;;;;;6.90;3.10;;;768.60;1177.60;;;;;;4944656;29;20028;-76
2022/06/24 09:33:02;;;;;;;5.68;2.70;;;768.70;1177.60;;;;;;4956474;29;20062;-76
2022/06/24 09:35:28;;;;;;;9.95;2.88;;;768.70;1152.00;;;;;;4956557;28;20027;-76
2022/06/24 09:37:53;;;;;;;7.10;2.88;;;768.80;1152.00;;;;;;4956468;28;20027;-77
2022/06/24 09:40:22;;;;;;;4.63;2.83;;;793.60;1177.60;;;;;;4956291;29;20385;-77
2022/06/24 09:42:59;;;;;;;6.32;2.75;;;793.70;1152.00;;;;;;4939375;29;20111;-76
2022/06/24 09:45:41;;;;;;;5.68;2.90;;;793.90;1126.40;;;;;;4956314;29;20062;-76
2022/06/24 09:48:07;;;;;;;5.32;2.63;;;794.00;1126.40;;;;;;4938642;29;20114;-76
2022/06/24 09:50:34;;;;;;;4.38;3.28;;;794.10;1100.80;;;;;;4956332;29;20533;-75
2022/06/24 09:53:02;;;;;;;3.70;2.83;;;794.20;1100.80;;;;;;4955875;28;20019;-76
2022/06/24 09:55:28;;;;;;;5.55;3.05;;;794.20;1075.20;;;;;;4955808;28;20580;-76
2022/06/24 09:57:56;;;;;;;5.68;2.85;;;794.30;1075.20;;;;;;4955911;28;20031;-76
2022/06/24 10:03:13;;;;;;;5.82;3.40;;;819.30;1100.80;;;;;;4956107;28;20030;-75
2022/06/24 10:05:42;;;;;;;3.65;2.60;;;819.60;1075.20;;;;;;4938650;29;20422;-76
2022/06/24 10:08:15;;;;;;;4.97;2.55;;;819.60;1024.00;;;;;;4938800;29;20133;-76
2022/06/24 10:10:47;;;;;;;4.47;3.08;;;819.60;1049.60;;;;;;4938457;29;20031;-76
2022/06/24 10:13:24;;;;;;;7.13;2.65;;;819.80;1049.60;;;;;;4955984;28;20027;-77
2022/06/24 10:15:52;;;;;;;3.80;2.67;;;819.80;1024.00;;;;;;4938826;29;20051;-77
2022/06/24 10:18:20;;;;;;;3.97;2.90;;;819.90;998.40;;;;;;4955920;29;20019;-76
2022/06/24 10:20:47;;;;;;;8.18;3.08;;;820.10;1049.60;;;;;;4955751;28;20031;-76
2022/06/24 10:23:36;;;;;;;5.45;2.75;;;819.90;1024.00;;;;;;4955882;28;20023;-77
2022/06/24 10:26:16;;;;;;;6.28;2.95;;;820.00;1024.00;;;;;;4955479;28;20126;-77
2022/06/24 10:29:00;;;;;;;4.65;2.97;;;820.00;998.40;;;;;;4955591;28;20097;-76
2022/06/24 10:31:44;;;;;;;4.28;2.92;;;820.00;998.40;;;;;;4938482;29;20089;-77
2022/06/24 10:34:22;;;;;;;5.30;2.63;;;820.10;1024.00;;;;;;4955495;28;20027;-77
2022/06/24 10:36:53;;;;;;;7.22;2.75;;;820.10;1024.00;;;;;;4938236;29;20038;-76
2022/06/24 10:39:24;;;;;;;5.07;2.53;;;844.90;1024.00;;;;;;4955466;28;20529;-76
2022/06/24 10:42:07;;;;;;;3.67;2.75;;;845.00;972.80;;;;;;4955360;28;20042;-76
2022/06/24 10:44:37;;;;;;;3.45;2.50;;;845.10;1024.00;;;;;;4955258;28;20034;-76
2022/06/24 10:47:12;;;;;;;5.53;2.83;;;845.00;972.80;;;;;;4955474;29;20019;-77
2022/06/24 10:49:55;;;;;;;5.78;2.70;;;845.00;972.80;;;;;;4955002;28;20027;-76
2022/06/24 10:52:39;;;;;;;4.95;2.58;;;845.00;998.40;;;;;;4955007;29;20046;-76
2022/06/24 10:57:55;;;;;;;4.30;2.78;;;845.20;1024.00;;;;;;4955092;29;20070;-76
2022/06/24 11:00:26;;;;;;;6.05;3.03;;;845.30;998.40;;;;;;4937974;29;20033;-76
2022/06/24 11:03:04;;;;;;;3.85;2.70;;;845.50;998.40;;;;;;4955229;29;20489;-76
2022/06/24 11:05:41;;;;;;;4.93;2.42;;;845.60;972.80;;;;;;4937578;29;20035;-76
2022/06/24 11:08:19;;;;;;;5.47;2.90;;;845.30;947.20;;;;;;4954816;28;20484;-76
2022/06/24 11:10:47;;;;;;;4.47;3.00;;;845.30;972.80;;;;;;4954596;28;20031;-76
2022/06/24 11:13:13;;;;;;;6.88;2.55;;;845.30;998.40;;;;;;4937342;28;20042;-76
2022/06/24 11:15:43;;;;;;;5.40;2.38;;;845.50;947.20;;;;;;4954594;29;20031;-75
2022/06/24 11:18:13;;;;;;;3.10;2.47;;;845.60;947.20;;;;;;4937451;29;20027;-75
2022/06/24 11:20:41;;;;;;;4.95;2.50;;;845.70;947.20;;;;;;4954544;29;20027;-76
2022/06/24 11:23:13;;;;;;;4.63;2.78;;;845.70;947.20;;;;;;4954453;29;20024;-75
2022/06/24 11:25:40;;;;;;;4.13;2.67;;;845.70;972.80;;;;;;4936971;29;20098;-76
2022/06/24 11:28:37;;;;;;;5.20;2.95;;;845.70;947.20;;;;;;4937022;29;20492;-75
2022/06/24 11:31:27;;;;;;;4.43;2.53;;;845.70;947.20;;;;;;4953652;28;20039;-76
2022/06/24 11:34:04;;;;;;;5.72;2.75;;;845.70;921.60;;;;;;4953225;29;20023;-76
2022/06/24 11:36:31;;;;;;;6.75;2.78;;;845.60;947.20;;;;;;4952454;29;20098;-76
2022/06/24 11:39:03;;;;;;;4.53;2.65;;;845.70;947.20;;;;;;4954016;29;20030;-76
2022/06/24 11:41:38;;;;;;;5.25;2.80;;;845.70;947.20;;;;;;4954017;28;20015;-76
2022/06/24 11:44:04;;;;;;;7.65;2.45;;;845.60;972.80;;;;;;4951593;28;20062;-76
2022/06/24 11:46:30;;;;;;;4.22;2.60;;;845.50;947.20;;;;;;4953953;28;20019;-76
2022/06/24 11:49:11;;;;;;;6.55;2.95;;;845.70;947.20;;;;;;4936784;29;20564;-76
2022/06/24 11:51:37;;;;;;;13.02;4.05;;;845.70;947.20;;;;;;4951501;29;20082;-76
2022/06/24 11:54:05;;;;;;;4.88;2.40;;;845.70;947.20;;;;;;4936495;29;20055;-76
2022/06/24 11:56:33;;;;;;;5.93;2.67;;;845.70;947.20;;;;;;4953478;29;20043;-76
2022/06/24 11:59:01;;;;;;;5.47;2.70;;;870.40;972.80;;;;;;4953773;28;20027;-76
2022/06/24 12:01:28;;;;;;;4.55;2.47;;;870.40;921.60;;;;;;4953918;28;20054;-76
2022/06/24 12:03:56;;;;;;;7.93;2.88;;;845.70;921.60;;;;;;4953950;28;20477;-76
2022/06/24 12:06:23;;;;;;;6.57;2.88;;;845.70;921.60;;;;;;4954098;28;20035;-76
2022/06/24 12:08:50;;;;;;;4.53;2.75;;;870.50;972.80;;;;;;4936997;29;20055;-76
2022/06/24 12:11:18;;;;;;;4.82;2.45;;;870.60;947.20;;;;;;4954180;28;20037;-76
2022/06/24 12:14:03;;;;;;;3.75;2.70;;;845.70;921.60;;;;;;4953997;28;20019;-76
2022/06/24 12:17:06;;;;;;;5.15;2.63;;;870.40;972.80;;;;;;4953838;28;20031;-76
2022/06/24 12:19:39;;;;;;;4.03;2.80;;;870.60;947.20;;;;;;4953915;29;20051;-76
2022/06/24 12:22:06;;;;;;;3.75;2.63;;;870.70;947.20;;;;;;4953400;29;20033;-76
2022/06/24 12:24:32;;;;;;;3.67;2.67;;;870.60;921.60;;;;;;4936286;29;20054;-76
2022/06/24 12:27:02;;;;;;;5.13;2.80;;;870.70;921.60;;;;;;4953340;29;20051;-76